createdAt,value
2019-03-15T00:01:06.453Z,1.20
2019-03-15T00:03:35.063Z,0.30
2019-03-15T00:06:03.683Z,1.50
2019-03-15T00:08:32.306Z,0.40
2019-03-15T00:11:01.007Z,1.70
2019-03-15T00:13:30.703Z,1.27
2019-03-15T00:15:59.335Z,0.40
2019-03-15T00:18:27.971Z,0.55
2019-03-15T00:20:56.599Z,1.47
2019-03-15T00:23:25.215Z,0.33
2019-03-15T00:25:55.275Z,0.80
2019-03-15T00:28:24.269Z,1.10
2019-03-15T00:30:52.888Z,0.98
2019-03-15T00:33:21.518Z,0.50
2019-03-15T00:35:50.128Z,0.50
2019-03-15T00:38:18.765Z,1.77
2019-03-15T00:40:47.371Z,1.03
2019-03-15T00:43:15.983Z,0.40
2019-03-15T00:45:44.627Z,0.60
2019-03-15T00:48:13.328Z,0.72
2019-03-15T00:50:41.947Z,0.57
2019-03-15T00:53:10.591Z,0.65
2019-03-15T00:55:39.223Z,1.32
2019-03-15T00:58:07.839Z,0.90
2019-03-15T01:00:36.555Z,0.62
2019-03-15T01:03:05.170Z,0.78
2019-03-15T01:05:33.815Z,0.70
2019-03-15T01:08:02.427Z,0.93
2019-03-15T01:10:31.043Z,0.83
2019-03-15T01:12:59.685Z,1.72
2019-03-15T01:15:28.379Z,0.93
2019-03-15T01:17:57.139Z,1.37
2019-03-15T01:20:25.799Z,1.67
2019-03-15T01:22:54.427Z,0.40
2019-03-15T01:25:24.863Z,1.32
2019-03-15T01:27:53.471Z,1.27
2019-03-15T01:30:22.123Z,0.93
2019-03-15T01:32:50.815Z,0.37
2019-03-15T01:35:19.511Z,0.60
2019-03-15T01:37:48.142Z,0.80
2019-03-15T01:40:16.759Z,0.83
2019-03-15T01:42:45.456Z,0.67
2019-03-15T01:45:14.079Z,1.42
2019-03-15T01:47:43.037Z,1.07
2019-03-15T01:50:11.711Z,0.88
2019-03-15T01:52:41.391Z,0.60
2019-03-15T01:55:10.999Z,1.80
2019-03-15T01:57:39.603Z,0.50
2019-03-15T02:00:08.894Z,1.20
2019-03-15T02:02:37.523Z,1.03
2019-03-15T02:05:06.156Z,1.22
2019-03-15T02:07:34.819Z,0.40
2019-03-15T02:10:03.468Z,0.60
2019-03-15T02:12:32.083Z,0.47
2019-03-15T02:15:00.729Z,0.80
2019-03-15T02:17:29.946Z,0.95
2019-03-15T02:19:58.649Z,0.60
2019-03-15T02:22:27.271Z,0.53
2019-03-15T02:24:56.867Z,0.75
2019-03-15T02:27:25.507Z,0.87
2019-03-15T02:29:54.111Z,1.30
2019-03-15T02:32:22.947Z,0.20
2019-03-15T02:34:51.569Z,0.50
2019-03-15T02:37:20.206Z,1.50
2019-03-15T02:39:48.839Z,1.35
2019-03-15T02:42:17.801Z,0.90
2019-03-15T02:44:46.409Z,0.30
2019-03-15T02:47:15.075Z,0.60
2019-03-15T02:49:44.194Z,0.57
2019-03-15T02:52:12.815Z,0.53
2019-03-15T02:54:41.454Z,2.03
2019-03-15T02:57:10.067Z,0.50
2019-03-15T02:59:38.683Z,0.72
2019-03-15T03:02:07.384Z,0.82
2019-03-15T03:04:36.018Z,0.20
2019-03-15T03:07:04.671Z,1.13
2019-03-15T03:09:34.122Z,0.97
2019-03-15T03:12:02.901Z,0.77
2019-03-15T03:14:31.675Z,0.60
2019-03-15T03:17:00.291Z,1.13
2019-03-15T03:19:28.947Z,0.73
2019-03-15T03:21:57.568Z,0.93
2019-03-15T03:24:26.256Z,1.07
2019-03-15T03:26:54.900Z,0.63
2019-03-15T03:29:23.596Z,0.67
2019-03-15T03:31:52.242Z,0.78
2019-03-15T03:34:20.869Z,0.47
2019-03-15T03:36:49.467Z,0.80
2019-03-15T03:39:18.587Z,1.20
2019-03-15T03:41:47.233Z,1.30
2019-03-15T03:44:15.852Z,1.33
2019-03-15T03:46:44.456Z,1.10
2019-03-15T03:49:13.083Z,1.20
2019-03-15T03:51:41.835Z,1.47
2019-03-15T03:54:10.463Z,0.90
2019-03-15T03:56:39.075Z,0.87
2019-03-15T03:59:07.720Z,1.57
2019-03-15T04:01:36.335Z,1.67
2019-03-15T04:04:04.990Z,1.80
2019-03-15T04:06:33.607Z,1.55
2019-03-15T04:09:02.311Z,1.05
2019-03-15T04:11:31.111Z,0.40
2019-03-15T04:13:59.749Z,0.80
2019-03-15T04:16:28.379Z,0.50
2019-03-15T04:18:57.007Z,1.10
2019-03-15T04:21:25.659Z,0.73
2019-03-15T04:23:54.287Z,1.35
2019-03-15T04:26:22.916Z,0.93
2019-03-15T04:28:51.543Z,1.00
2019-03-15T04:31:20.595Z,1.20
2019-03-15T04:33:49.215Z,0.70
2019-03-15T04:36:17.839Z,0.50
2019-03-15T04:38:46.474Z,0.33
2019-03-15T04:41:15.082Z,1.62
2019-03-15T04:43:43.730Z,0.60
2019-03-15T04:46:12.354Z,0.90
2019-03-15T04:48:41.031Z,0.93
2019-03-15T04:51:10.011Z,1.15
2019-03-15T04:53:38.670Z,1.10
2019-03-15T04:56:07.442Z,1.10
2019-03-15T04:58:36.145Z,1.05
2019-03-15T05:01:04.767Z,0.83
2019-03-15T05:03:33.399Z,0.30
2019-03-15T05:06:03.836Z,0.60
2019-03-15T05:08:32.321Z,0.35
2019-03-15T05:11:00.943Z,0.67
2019-03-15T05:13:29.584Z,1.53
2019-03-15T05:15:58.206Z,0.65
2019-03-15T05:18:26.822Z,0.55
2019-03-15T05:20:55.537Z,0.20
2019-03-15T05:23:24.166Z,0.33
2019-03-15T05:25:52.783Z,0.10
2019-03-15T05:28:21.420Z,0.53
2019-03-15T05:30:50.392Z,0.30
2019-03-15T05:33:19.029Z,1.60
2019-03-15T05:35:47.641Z,0.30
2019-03-15T05:38:16.263Z,1.23
2019-03-15T05:40:44.959Z,1.80
2019-03-15T05:43:14.543Z,0.40
2019-03-15T05:45:43.175Z,1.23
2019-03-15T05:48:11.812Z,0.37
2019-03-15T05:50:40.913Z,0.82
2019-03-15T05:53:09.639Z,0.80
2019-03-15T05:55:38.311Z,0.97
2019-03-15T05:58:07.014Z,1.13
2019-03-15T06:00:35.753Z,0.60
2019-03-15T06:03:04.395Z,0.20
2019-03-15T06:05:34.099Z,0.45
2019-03-15T06:08:02.706Z,0.40
2019-03-15T06:10:31.339Z,0.47
2019-03-15T06:13:00.234Z,0.33
2019-03-15T06:15:28.914Z,0.53
2019-03-15T06:17:57.563Z,0.90
2019-03-15T06:20:26.294Z,0.30
2019-03-15T06:22:54.903Z,0.73
2019-03-15T06:25:23.549Z,0.37
2019-03-15T06:27:52.502Z,0.90
2019-03-15T06:30:21.132Z,1.15
2019-03-15T06:32:49.807Z,1.17
2019-03-15T06:35:18.440Z,1.40
2019-03-15T06:37:47.064Z,1.60
2019-03-15T06:40:15.677Z,2.13
2019-03-15T06:42:44.311Z,2.00
2019-03-15T06:45:12.951Z,2.33
2019-03-15T06:47:41.570Z,1.70
2019-03-15T06:50:10.388Z,2.37
2019-03-15T06:52:39.024Z,2.47
2019-03-15T06:55:07.731Z,2.67
2019-03-15T06:57:36.350Z,3.08
2019-03-15T07:00:05.355Z,3.10
2019-03-15T07:02:35.034Z,3.42
2019-03-15T07:05:03.667Z,3.00
2019-03-15T07:07:32.307Z,3.83
2019-03-15T07:10:00.932Z,3.03
2019-03-15T07:12:29.563Z,3.70
2019-03-15T07:14:58.403Z,3.40
2019-03-15T07:17:27.155Z,3.15
2019-03-15T07:19:55.791Z,3.50
2019-03-15T07:22:25.505Z,3.93
2019-03-15T07:24:54.640Z,3.77
2019-03-15T07:27:23.284Z,3.67
2019-03-15T07:29:51.907Z,3.37
2019-03-15T07:32:20.542Z,4.60
2019-03-15T07:34:49.219Z,4.03
2019-03-15T07:37:17.854Z,2.98
2019-03-15T07:39:46.501Z,3.58
2019-03-15T07:42:15.107Z,3.08
2019-03-15T07:44:43.817Z,3.97
2019-03-15T07:47:12.447Z,3.40
2019-03-15T07:49:41.135Z,3.23
2019-03-15T07:52:09.763Z,3.83
2019-03-15T07:54:38.723Z,3.83
2019-03-15T07:57:07.468Z,3.20
2019-03-15T07:59:36.304Z,3.15
2019-03-15T08:02:05.139Z,4.07
2019-03-15T08:04:36.005Z,3.85
2019-03-15T08:07:04.072Z,3.85
2019-03-15T08:09:33.759Z,3.87
2019-03-15T08:12:02.386Z,3.20
2019-03-15T08:14:31.156Z,3.67
2019-03-15T08:16:59.784Z,2.70
2019-03-15T08:19:28.404Z,4.50
2019-03-15T08:21:57.015Z,3.60
2019-03-15T08:24:26.630Z,3.17
2019-03-15T08:26:55.247Z,3.30
2019-03-15T08:29:23.865Z,2.20
2019-03-15T08:31:52.499Z,1.47
2019-03-15T08:34:21.118Z,1.80
2019-03-15T08:36:49.744Z,1.63
2019-03-15T08:39:18.396Z,1.43
2019-03-15T08:41:47.016Z,1.42
2019-03-15T08:44:16.080Z,1.75
2019-03-15T08:46:44.803Z,1.80
2019-03-15T08:49:13.445Z,1.62
2019-03-15T08:51:42.063Z,1.00
2019-03-15T08:54:10.687Z,1.60
2019-03-15T08:56:39.327Z,1.72
2019-03-15T08:59:07.943Z,1.57
2019-03-15T09:01:36.646Z,1.33
2019-03-15T09:04:05.275Z,1.70
2019-03-15T09:06:34.139Z,1.50
2019-03-15T09:09:02.739Z,1.13
2019-03-15T09:11:31.447Z,2.35
2019-03-15T09:14:00.080Z,2.33
2019-03-15T09:16:28.708Z,2.02
2019-03-15T09:18:57.815Z,1.55
2019-03-15T09:21:26.473Z,2.10
2019-03-15T09:23:55.087Z,0.88
2019-03-15T09:26:23.715Z,1.22
2019-03-15T09:28:52.423Z,1.03
2019-03-15T09:31:21.707Z,0.95
2019-03-15T09:33:50.338Z,1.27
2019-03-15T09:36:19.064Z,1.07
2019-03-15T09:38:47.692Z,1.77
2019-03-15T09:41:30.519Z,1.70
2019-03-15T09:43:46.927Z,1.72
2019-03-15T09:46:15.959Z,1.10
2019-03-15T09:48:44.599Z,1.93
2019-03-15T09:51:13.240Z,1.40
2019-03-15T09:53:41.848Z,1.02
2019-03-15T09:56:11.117Z,1.00
2019-03-15T09:58:39.768Z,0.82
2019-03-15T10:01:08.969Z,1.17
2019-03-15T10:03:37.907Z,0.90
2019-03-15T10:06:14.835Z,1.30
2019-03-15T10:08:36.858Z,0.90
2019-03-15T10:11:05.547Z,1.23
2019-03-15T10:13:34.150Z,0.63
2019-03-15T10:16:02.791Z,1.27
2019-03-15T10:18:31.427Z,2.37
2019-03-15T10:21:00.120Z,0.90
2019-03-15T10:23:29.328Z,0.85
2019-03-15T10:25:58.991Z,1.03
2019-03-15T10:28:27.823Z,2.40
2019-03-15T10:30:56.448Z,1.07
2019-03-15T10:33:25.074Z,1.20
2019-03-15T10:35:53.692Z,1.25
2019-03-15T10:38:23.419Z,1.23
2019-03-15T10:40:52.043Z,1.00
2019-03-15T10:43:21.066Z,0.78
2019-03-15T10:45:49.706Z,1.17
2019-03-15T10:48:25.233Z,1.40
2019-03-15T10:50:48.574Z,0.90
2019-03-15T10:53:17.214Z,1.23
2019-03-15T10:55:59.232Z,0.97
2019-03-15T10:58:16.152Z,1.33
2019-03-15T11:00:44.838Z,1.10
2019-03-15T11:03:14.491Z,1.07
2019-03-15T11:05:43.151Z,1.35
2019-03-15T11:08:11.783Z,1.70
2019-03-15T11:10:40.394Z,1.13
2019-03-15T11:13:09.132Z,1.10
2019-03-15T11:15:37.753Z,0.57
2019-03-15T11:18:06.362Z,1.13
2019-03-15T11:20:35.005Z,0.65
2019-03-15T11:23:03.968Z,1.12
2019-03-15T11:25:32.563Z,1.52
2019-03-15T11:28:01.182Z,0.85
2019-03-15T11:30:29.791Z,0.53
2019-03-15T11:32:59.031Z,1.67
2019-03-15T11:35:27.655Z,0.93
2019-03-15T11:37:56.267Z,0.88
2019-03-15T11:40:24.891Z,1.22
2019-03-15T11:42:53.611Z,0.65
2019-03-15T11:45:22.250Z,0.60
2019-03-15T11:48:03.402Z,1.80
2019-03-15T11:50:21.138Z,0.57
2019-03-15T11:52:49.758Z,0.80
2019-03-15T11:55:18.383Z,1.32
2019-03-15T11:57:46.991Z,1.10
2019-03-15T12:00:15.599Z,0.53
2019-03-15T12:02:44.327Z,0.90
2019-03-15T12:05:12.940Z,0.83
2019-03-15T12:07:41.558Z,0.70
2019-03-15T12:10:10.227Z,0.85
2019-03-15T12:12:38.847Z,0.93
2019-03-15T12:15:09.608Z,1.23
2019-03-15T12:17:38.243Z,0.82
2019-03-15T12:20:07.180Z,0.90
2019-03-15T12:22:36.859Z,0.70
2019-03-15T12:25:05.591Z,1.03
2019-03-15T12:27:34.199Z,0.87
2019-03-15T12:30:02.840Z,0.90
2019-03-15T12:32:31.547Z,0.83
2019-03-15T12:35:00.403Z,0.40
2019-03-15T12:37:29.075Z,0.37
2019-03-15T12:39:57.707Z,1.00
2019-03-15T12:42:26.430Z,0.53
2019-03-15T12:44:55.046Z,0.90
2019-03-15T12:47:23.655Z,0.75
2019-03-15T12:49:52.315Z,0.60
2019-03-15T12:52:20.930Z,0.68
2019-03-15T12:54:49.551Z,0.65
2019-03-15T12:57:18.263Z,0.78
2019-03-15T12:59:46.866Z,0.78
2019-03-15T13:02:15.485Z,0.93
2019-03-15T13:04:44.124Z,0.60
2019-03-15T13:07:12.739Z,1.03
2019-03-15T13:09:41.352Z,0.70
2019-03-15T13:12:10.343Z,0.70
2019-03-15T13:14:38.941Z,0.70
2019-03-15T13:17:07.551Z,0.60
2019-03-15T13:19:36.456Z,0.55
2019-03-15T13:22:05.165Z,0.88
2019-03-15T13:24:33.803Z,1.07
2019-03-15T13:27:07.318Z,0.85
2019-03-15T13:29:32.831Z,0.50
2019-03-15T13:32:01.443Z,0.53
2019-03-15T13:34:30.410Z,0.50
2019-03-15T13:36:59.028Z,0.62
2019-03-15T13:39:27.721Z,0.75
2019-03-15T13:41:56.337Z,0.60
2019-03-15T13:44:26.269Z,0.63
2019-03-15T13:46:55.067Z,1.17
2019-03-15T13:49:23.692Z,0.78
2019-03-15T13:51:55.579Z,0.88
2019-03-15T13:54:24.915Z,0.93
2019-03-15T13:56:53.604Z,0.53
2019-03-15T13:59:22.292Z,0.60
2019-03-15T14:01:50.915Z,1.20
2019-03-15T14:04:19.623Z,1.13
2019-03-15T14:06:48.223Z,0.95
2019-03-15T14:09:16.835Z,0.45
2019-03-15T14:11:45.536Z,0.93
2019-03-15T14:14:14.155Z,0.78
2019-03-15T14:16:42.779Z,0.50
2019-03-15T14:19:12.005Z,0.45
2019-03-15T14:21:40.691Z,0.70
2019-03-15T14:24:09.333Z,0.60
2019-03-15T14:26:37.959Z,0.40
2019-03-15T14:29:06.680Z,0.87
2019-03-15T14:31:35.299Z,0.30
2019-03-15T14:34:03.985Z,0.53
2019-03-15T14:36:32.636Z,1.03
2019-03-15T14:39:01.493Z,0.97
2019-03-15T14:41:31.386Z,0.90
2019-03-15T14:44:00.292Z,0.55
2019-03-15T14:46:28.871Z,0.78
2019-03-15T14:48:57.567Z,0.65
2019-03-15T14:51:26.187Z,0.67
2019-03-15T14:53:54.836Z,1.00
2019-03-15T14:56:23.704Z,1.10
2019-03-15T14:58:52.387Z,0.80
2019-03-15T15:01:21.570Z,0.80
2019-03-15T15:03:50.187Z,0.93
2019-03-15T15:06:18.953Z,0.30
2019-03-15T15:08:47.587Z,0.90
2019-03-15T15:11:16.955Z,0.55
2019-03-15T15:13:45.594Z,0.60
2019-03-15T15:16:14.194Z,1.00
2019-03-15T15:18:42.875Z,0.57
2019-03-15T15:21:11.508Z,0.30
2019-03-15T15:23:40.779Z,1.17
2019-03-15T15:26:09.391Z,0.90
2019-03-15T15:28:38.031Z,0.90
2019-03-15T15:31:07.038Z,1.50
2019-03-15T15:33:35.683Z,0.72
2019-03-15T15:36:04.337Z,0.47
2019-03-15T15:38:33.036Z,1.22
2019-03-15T15:41:01.667Z,1.05
2019-03-15T15:43:30.350Z,0.50
2019-03-15T15:45:59.323Z,0.72
2019-03-15T15:48:27.983Z,0.37
2019-03-15T15:50:56.691Z,1.07
2019-03-15T15:53:25.307Z,0.93
2019-03-15T15:55:53.947Z,1.00
2019-03-15T15:58:22.600Z,0.97
2019-03-15T16:00:51.215Z,1.00
2019-03-15T16:03:19.840Z,0.80
2019-03-15T16:05:48.483Z,0.65
2019-03-15T16:08:17.091Z,0.90
2019-03-15T16:10:45.966Z,0.75
2019-03-15T16:13:17.839Z,1.00
2019-03-15T16:15:44.823Z,0.93
2019-03-15T16:18:13.452Z,0.70
2019-03-15T16:20:42.077Z,0.60
2019-03-15T16:23:10.707Z,0.53
2019-03-15T16:25:39.365Z,0.97
2019-03-15T16:28:07.972Z,0.90
2019-03-15T16:30:36.584Z,1.60
2019-03-15T16:33:05.204Z,1.67
2019-03-15T16:35:33.830Z,1.65
2019-03-15T16:38:02.449Z,1.17
2019-03-15T16:40:31.028Z,1.32
2019-03-15T16:42:59.753Z,1.43
2019-03-15T16:45:28.366Z,1.40
2019-03-15T16:47:57.043Z,2.55
2019-03-15T16:50:25.688Z,1.57
2019-03-15T16:52:54.316Z,2.17
2019-03-15T16:55:22.984Z,3.50
2019-03-15T16:57:51.607Z,3.30
2019-03-15T17:00:20.228Z,3.92
2019-03-15T17:02:48.937Z,4.37
2019-03-15T17:05:18.247Z,4.50
2019-03-15T17:07:46.861Z,5.60
2019-03-15T17:10:16.007Z,5.20
2019-03-15T17:12:44.634Z,6.23
2019-03-15T17:15:13.812Z,5.30
2019-03-15T17:17:42.433Z,6.03
2019-03-15T17:20:11.448Z,6.22
2019-03-15T17:22:40.116Z,5.83
2019-03-15T17:25:09.875Z,5.53
2019-03-15T17:27:38.620Z,6.77
2019-03-15T17:30:09.319Z,6.30
2019-03-15T17:32:38.139Z,6.10
2019-03-15T17:35:07.285Z,6.57
2019-03-15T17:37:35.895Z,6.70
2019-03-15T17:40:05.058Z,7.57
2019-03-15T17:42:33.692Z,6.47
2019-03-15T17:45:02.329Z,5.90
2019-03-15T17:47:32.147Z,5.67
2019-03-15T17:50:01.743Z,6.12
2019-03-15T17:52:30.363Z,6.40
2019-03-15T17:54:59.002Z,6.20
2019-03-15T17:57:27.947Z,6.08
2019-03-15T18:00:10.437Z,6.87
2019-03-15T18:02:39.106Z,5.72
2019-03-15T18:05:08.088Z,6.30
2019-03-15T18:07:36.767Z,5.43
2019-03-15T18:10:05.547Z,5.72
2019-03-15T18:12:34.199Z,6.70
2019-03-15T18:15:02.824Z,6.33
2019-03-15T18:17:31.434Z,6.03
2019-03-15T18:20:00.081Z,6.60
2019-03-15T18:22:28.710Z,7.08
2019-03-15T18:24:57.351Z,7.28
2019-03-15T18:27:26.646Z,6.62
2019-03-15T18:29:55.255Z,6.73
2019-03-15T18:32:24.271Z,6.67
2019-03-15T18:34:52.911Z,2.60
2019-03-15T18:37:22.503Z,2.40
2019-03-15T18:39:51.131Z,2.47
2019-03-15T18:42:19.723Z,3.20
2019-03-15T18:44:48.371Z,3.27
2019-03-15T18:47:17.199Z,3.08
2019-03-15T18:49:45.807Z,2.87
2019-03-15T18:52:14.795Z,3.12
2019-03-15T18:54:43.408Z,3.03
2019-03-15T18:57:12.495Z,4.00
2019-03-15T18:59:41.127Z,3.42
2019-03-15T19:02:09.727Z,3.33
2019-03-15T19:04:38.363Z,2.60
2019-03-15T19:07:06.973Z,3.50
2019-03-15T19:09:35.586Z,4.17
2019-03-15T19:12:04.367Z,3.73
2019-03-15T19:14:32.979Z,3.93
2019-03-15T19:17:01.751Z,6.10
2019-03-15T19:19:30.375Z,4.37
2019-03-15T19:21:58.987Z,4.50
2019-03-15T19:24:27.704Z,5.60
2019-03-15T19:26:56.323Z,5.53
2019-03-15T19:29:24.939Z,5.63
2019-03-15T19:31:53.971Z,4.70
2019-03-15T19:34:22.602Z,5.10
2019-03-15T19:36:51.650Z,4.67
2019-03-15T19:39:21.247Z,2.80
2019-03-15T19:41:49.848Z,3.07
2019-03-15T19:44:18.473Z,3.40
2019-03-15T19:46:47.683Z,2.45
2019-03-15T19:49:16.323Z,2.93
2019-03-15T19:51:46.420Z,4.25
2019-03-15T19:54:15.059Z,4.58
2019-03-15T19:56:43.675Z,2.58
2019-03-15T19:59:13.206Z,2.58
2019-03-15T20:01:42.864Z,3.10
2019-03-15T20:04:11.628Z,2.58
2019-03-15T20:06:40.315Z,2.10
2019-03-15T20:09:08.920Z,1.87
2019-03-15T20:11:37.551Z,2.10
2019-03-15T20:14:06.237Z,2.00
2019-03-15T20:16:34.951Z,1.52
2019-03-15T20:19:03.554Z,2.30
2019-03-15T20:21:32.243Z,2.23
2019-03-15T20:24:00.892Z,2.10
2019-03-15T20:26:29.648Z,2.37
2019-03-15T20:28:58.277Z,1.97
2019-03-15T20:31:26.891Z,2.40
2019-03-15T20:33:55.523Z,2.07
2019-03-15T20:36:24.151Z,2.35
2019-03-15T20:38:52.831Z,2.70
2019-03-15T20:41:21.519Z,2.20
2019-03-15T20:43:50.172Z,1.85
2019-03-15T20:46:18.796Z,2.10
2019-03-15T20:48:47.474Z,2.67
2019-03-15T20:51:16.167Z,2.77
2019-03-15T20:53:44.791Z,2.77
2019-03-15T20:56:14.085Z,2.45
2019-03-15T20:58:42.695Z,2.20
2019-03-15T21:01:11.351Z,2.40
2019-03-15T21:03:40.037Z,3.30
2019-03-15T21:06:08.663Z,2.35
2019-03-15T21:08:37.303Z,2.57
2019-03-15T21:11:05.928Z,2.33
2019-03-15T21:13:34.551Z,1.95
2019-03-15T21:16:03.197Z,2.40
2019-03-15T21:18:31.796Z,2.25
2019-03-15T21:21:00.408Z,2.70
2019-03-15T21:23:29.079Z,2.80
2019-03-15T21:25:58.260Z,1.80
2019-03-15T21:28:26.883Z,2.10
2019-03-15T21:30:55.857Z,2.65
2019-03-15T21:33:24.479Z,2.40
2019-03-15T21:35:53.605Z,2.12
2019-03-15T21:38:22.213Z,2.37
2019-03-15T21:40:50.849Z,2.42
2019-03-15T21:43:19.542Z,2.63
2019-03-15T21:45:48.147Z,1.72
2019-03-15T21:48:16.778Z,2.75
2019-03-15T21:50:45.439Z,2.67
2019-03-15T21:53:14.345Z,1.90
2019-03-15T21:55:42.969Z,3.10
2019-03-15T21:58:11.887Z,2.37
2019-03-15T22:00:40.565Z,2.10
2019-03-15T22:03:09.503Z,1.72
2019-03-15T22:05:38.196Z,2.00
2019-03-15T22:08:07.095Z,1.70
2019-03-15T22:10:35.734Z,2.43
2019-03-15T22:13:04.675Z,2.30
2019-03-15T22:15:33.372Z,2.07
2019-03-15T22:18:02.368Z,2.40
2019-03-15T22:20:30.992Z,2.10
2019-03-15T22:22:59.613Z,2.22
2019-03-15T22:25:28.206Z,1.90
2019-03-15T22:27:56.808Z,1.47
2019-03-15T22:30:25.523Z,2.45
2019-03-15T22:32:54.227Z,2.90
2019-03-15T22:35:23.057Z,2.37
2019-03-15T22:37:51.680Z,2.60
2019-03-15T22:40:20.797Z,1.60
2019-03-15T22:42:49.407Z,1.92
2019-03-15T22:45:18.016Z,1.97
2019-03-15T22:47:46.667Z,3.10
2019-03-15T22:50:15.280Z,2.12
2019-03-15T22:52:43.896Z,1.50
2019-03-15T22:55:12.599Z,2.17
2019-03-15T22:57:42.207Z,2.52
2019-03-15T23:00:12.091Z,2.63
2019-03-15T23:02:42.974Z,1.98
2019-03-15T23:05:11.628Z,2.47
2019-03-15T23:07:40.498Z,2.25
2019-03-15T23:10:09.127Z,1.87
2019-03-15T23:12:38.029Z,2.05
2019-03-15T23:15:06.667Z,2.27
2019-03-15T23:17:38.231Z,2.20
2019-03-15T23:20:07.155Z,2.17
2019-03-15T23:22:35.775Z,2.37
2019-03-15T23:25:04.684Z,2.15
2019-03-15T23:27:33.360Z,2.00
2019-03-15T23:30:02.625Z,2.08
2019-03-15T23:32:31.298Z,2.83
2019-03-15T23:35:00.871Z,1.87
2019-03-15T23:37:29.501Z,2.37
2019-03-15T23:39:58.115Z,2.37
2019-03-15T23:42:26.714Z,2.50
2019-03-15T23:44:55.572Z,1.80
2019-03-15T23:47:24.188Z,1.77
2019-03-15T23:49:53.082Z,2.42
2019-03-15T23:52:21.694Z,2.27
2019-03-15T23:54:51.026Z,2.47
2019-03-15T23:57:19.647Z,2.50
2019-03-15T23:59:48.835Z,1.98
